Time;durP1;ratioP1;P1;durP2;ratioP2;P2;SDS_P1;SDS_P2;PMS_P1;PMS_P2;Temp;Humidity;BMP_temperature;BMP_pressure;BME280_temperature;BME280_humidity;BME280_pressure;Samples;Min_cycle;Max_cycle;Signal;HPM_P1;HPM_P2
2021/12/07 00:01:46;;;;;;;13.00;9.73;;;;;;;;;;5101351;27;20124;-74
2021/12/07 00:04:12;;;;;;;14.13;8.87;;;;;;;;;;5108755;28;20036;-75
2021/12/07 00:06:37;;;;;;;13.57;8.67;;;;;;;;;;5111811;28;20349;-76
2021/12/07 00:09:04;;;;;;;12.57;9.23;;;;;;;;;;5112300;28;20034;-73
2021/12/07 00:11:29;;;;;;;11.93;8.67;;;;;;;;;;5112828;28;20024;-76
2021/12/07 00:13:57;;;;;;;11.87;8.17;;;;;;;;;;5084123;28;20035;-76
2021/12/07 00:16:23;;;;;;;11.90;8.57;;;;;;;;;;5110197;28;20020;-74
2021/12/07 00:18:48;;;;;;;12.47;9.07;;;;;;;;;;5111119;28;20077;-75
2021/12/07 00:21:16;;;;;;;12.37;8.93;;;;;;;;;;5113475;28;20395;-76
2021/12/07 00:23:41;;;;;;;11.53;8.43;;;;;;;;;;5112568;28;20019;-75
2021/12/07 00:26:06;;;;;;;12.10;8.57;;;;;;;;;;5112688;28;20114;-76
2021/12/07 00:28:32;;;;;;;13.23;9.50;;;;;;;;;;5106545;28;20116;-76
2021/12/07 00:31:08;;;;;;;12.43;9.00;;;;;;;;;;5113508;28;20030;-76
2021/12/07 00:33:41;;;;;;;12.27;8.97;;;;;;;;;;5095438;28;20058;-76
2021/12/07 00:36:07;;;;;;;11.43;8.33;;;;;;;;;;5105785;28;20175;-75
2021/12/07 00:38:32;;;;;;;11.33;8.60;;;;;;;;;;5107441;27;20491;-76
2021/12/07 00:40:59;;;;;;;10.73;7.70;;;;;;;;;;5095264;28;20035;-76
2021/12/07 00:43:26;;;;;;;12.57;8.47;;;;;;;;;;5111180;28;20034;-75
2021/12/07 00:45:54;;;;;;;11.20;8.03;;;;;;;;;;5107053;28;20051;-76
2021/12/07 00:48:20;;;;;;;11.57;8.57;;;;;;;;;;5108980;28;20141;-75
2021/12/07 00:50:46;;;;;;;11.20;8.33;;;;;;;;;;5111555;28;20055;-74
2021/12/07 00:53:11;;;;;;;11.37;7.87;;;;;;;;;;5112867;28;20020;-76
2021/12/07 00:55:39;;;;;;;11.00;8.07;;;;;;;;;;5098726;28;20078;-75
2021/12/07 00:58:13;;;;;;;13.37;8.33;;;;;;;;;;5101408;28;20024;-74
2021/12/07 01:00:39;;;;;;;11.20;8.30;;;;;;;;;;5101771;28;20487;-75
2021/12/07 01:03:04;;;;;;;11.57;7.53;;;;;;;;;;5131150;27;20051;-75
2021/12/07 01:05:33;;;;;;;12.00;8.73;;;;;;;;;;5115297;27;20463;-75
2021/12/07 01:27:03;;;;;;;11.43;8.43;;;;;;;;;;5058791;28;20388;-75
2021/12/07 01:29:28;;;;;;;13.27;8.33;;;;;;;;;;5045911;28;20047;-75
2021/12/07 01:32:23;;;;;;;11.30;7.77;;;;;;;;;;5055658;28;20024;-75
2021/12/07 01:37:52;;;;;;;10.75;7.68;;;;;;;;;;5043470;28;20044;-75
2021/12/07 01:43:26;;;;;;;12.53;8.37;;;;;;;;;;5068668;28;20036;-74
2021/12/07 01:59:33;;;;;;;11.40;8.43;;;;;;;;;;5126802;27;20033;-75
2021/12/07 02:02:00;;;;;;;14.97;8.30;;;;;;;;;;5106364;27;20062;-75
2021/12/07 02:04:25;;;;;;;13.20;8.53;;;;;;;;;;5131634;27;20019;-75
2021/12/07 02:06:50;;;;;;;12.20;8.17;;;;;;;;;;5113263;27;20015;-75
2021/12/07 02:09:15;;;;;;;12.70;8.63;;;;;;;;;;5132052;27;20055;-74
2021/12/07 02:11:47;;;;;;;12.43;8.17;;;;;;;;;;5094753;27;20106;-74
2021/12/07 02:14:18;;;;;;;12.13;7.70;;;;;;;;;;5111628;27;20016;-72
2021/12/07 02:16:45;;;;;;;12.80;8.33;;;;;;;;;;5131523;27;20014;-74
2021/12/07 02:19:10;;;;;;;11.50;7.57;;;;;;;;;;5113298;28;20019;-75
2021/12/07 02:21:35;;;;;;;13.30;8.53;;;;;;;;;;5112394;27;20068;-76
2021/12/07 02:24:00;;;;;;;11.87;8.00;;;;;;;;;;5093663;27;20031;-74
2021/12/07 02:26:25;;;;;;;11.17;7.63;;;;;;;;;;5119842;27;20027;-74
2021/12/07 02:28:52;;;;;;;10.83;7.70;;;;;;;;;;5107984;28;20382;-74
2021/12/07 02:31:18;;;;;;;10.97;7.60;;;;;;;;;;5111300;27;20022;-75
2021/12/07 02:33:43;;;;;;;10.60;7.20;;;;;;;;;;5132655;27;20027;-74
2021/12/07 02:36:08;;;;;;;12.83;8.40;;;;;;;;;;5112511;27;20115;-74
2021/12/07 02:38:34;;;;;;;14.30;9.20;;;;;;;;;;5128815;27;20474;-75
2021/12/07 02:40:59;;;;;;;13.73;8.80;;;;;;;;;;5113006;28;20026;-75
2021/12/07 02:43:25;;;;;;;13.07;8.23;;;;;;;;;;5131466;28;20023;-75
2021/12/07 02:45:50;;;;;;;13.73;9.00;;;;;;;;;;5107151;27;20388;-76
2021/12/07 02:48:16;;;;;;;13.57;8.13;;;;;;;;;;5128911;27;20032;-75
2021/12/07 02:50:41;;;;;;;12.57;8.17;;;;;;;;;;5130203;28;20020;-75
2021/12/07 02:53:06;;;;;;;13.27;8.43;;;;;;;;;;5130991;28;20042;-75
2021/12/07 02:55:33;;;;;;;12.87;8.70;;;;;;;;;;5111970;28;20473;-75
2021/12/07 02:57:58;;;;;;;13.60;8.97;;;;;;;;;;5108154;28;20114;-76
2021/12/07 03:00:29;;;;;;;13.17;8.13;;;;;;;;;;5126515;27;20102;-75
2021/12/07 03:03:01;;;;;;;13.03;8.93;;;;;;;;;;5096825;27;20046;-75
2021/12/07 03:26:53;;;;;;;13.37;8.53;;;;;;;;;;5139588;27;20026;-75
2021/12/07 03:29:18;;;;;;;12.30;8.60;;;;;;;;;;5128806;27;20019;-75
2021/12/07 03:31:43;;;;;;;12.97;8.57;;;;;;;;;;5123997;27;20070;-75
2021/12/07 03:34:09;;;;;;;12.53;8.00;;;;;;;;;;5095516;27;20084;-75
2021/12/07 03:36:34;;;;;;;14.70;9.37;;;;;;;;;;5115676;27;20059;-75
2021/12/07 03:39:00;;;;;;;13.70;9.53;;;;;;;;;;5090828;27;20020;-75
2021/12/07 03:41:25;;;;;;;15.90;9.97;;;;;;;;;;5116274;27;20085;-75
2021/12/07 03:43:51;;;;;;;14.73;9.90;;;;;;;;;;5133700;27;20034;-75
2021/12/07 03:46:16;;;;;;;16.17;10.50;;;;;;;;;;5113708;27;20030;-76
2021/12/07 03:48:42;;;;;;;16.73;10.90;;;;;;;;;;5115452;27;20023;-75
2021/12/07 03:51:08;;;;;;;16.37;10.67;;;;;;;;;;5116456;27;20164;-75
2021/12/07 03:53:33;;;;;;;17.33;10.33;;;;;;;;;;5115939;27;20023;-75
2021/12/07 03:55:59;;;;;;;18.27;11.63;;;;;;;;;;5115288;27;20035;-75
2021/12/07 03:58:24;;;;;;;17.67;11.53;;;;;;;;;;5131076;27;20023;-75
2021/12/07 04:00:49;;;;;;;19.87;12.43;;;;;;;;;;5108117;27;20049;-74
2021/12/07 04:03:15;;;;;;;17.97;11.60;;;;;;;;;;5116633;27;20121;-75
2021/12/07 04:05:47;;;;;;;20.53;11.97;;;;;;;;;;5115571;27;20026;-75
2021/12/07 04:08:13;;;;;;;20.33;12.60;;;;;;;;;;5116882;27;20116;-75
2021/12/07 04:10:38;;;;;;;18.53;11.60;;;;;;;;;;5134181;27;20122;-75
2021/12/07 04:13:03;;;;;;;20.60;13.03;;;;;;;;;;5115524;27;20027;-74
2021/12/07 04:15:28;;;;;;;20.57;12.53;;;;;;;;;;5132066;27;20047;-74
2021/12/07 04:17:54;;;;;;;20.73;12.90;;;;;;;;;;5108633;28;20058;-75
2021/12/07 04:20:19;;;;;;;21.40;12.73;;;;;;;;;;5102062;27;20205;-76
2021/12/07 04:22:44;;;;;;;20.03;13.33;;;;;;;;;;5134467;27;20490;-76
2021/12/07 04:25:11;;;;;;;18.63;11.93;;;;;;;;;;5131958;27;20027;-77
2021/12/07 04:27:38;;;;;;;20.03;12.80;;;;;;;;;;5110230;27;20026;-76
2021/12/07 04:30:05;;;;;;;20.87;12.57;;;;;;;;;;5124775;27;20468;-74
2021/12/07 04:32:30;;;;;;;19.33;13.00;;;;;;;;;;5134000;27;20023;-75
2021/12/07 04:34:56;;;;;;;20.80;13.53;;;;;;;;;;5134881;27;20023;-75
2021/12/07 04:37:21;;;;;;;20.93;12.57;;;;;;;;;;5115525;27;20023;-75
2021/12/07 04:39:46;;;;;;;22.50;13.50;;;;;;;;;;5133095;27;20048;-75
2021/12/07 04:42:11;;;;;;;19.63;11.80;;;;;;;;;;5096989;27;20031;-75
2021/12/07 04:44:43;;;;;;;21.17;13.20;;;;;;;;;;5099272;27;20027;-75
2021/12/07 04:47:17;;;;;;;23.20;13.47;;;;;;;;;;5113014;27;20028;-74
2021/12/07 04:57:47;;;;;;;21.80;12.13;;;;;;;;;;5126336;27;20402;-75
2021/12/07 05:00:20;;;;;;;18.03;11.07;;;;;;;;;;5114055;27;20092;-75
2021/12/07 05:02:51;;;;;;;21.10;12.50;;;;;;;;;;5126054;27;20051;-75
2021/12/07 05:05:17;;;;;;;18.43;11.43;;;;;;;;;;5132193;27;20468;-75
2021/12/07 05:07:48;;;;;;;20.50;12.30;;;;;;;;;;5115874;27;20427;-75
2021/12/07 05:13:07;;;;;;;19.87;12.47;;;;;;;;;;5130254;27;20238;-75
2021/12/07 05:40:04;;;;;;;21.07;13.03;;;;;;;;;;5029080;28;20184;-75
2021/12/07 05:42:29;;;;;;;21.90;12.97;;;;;;;;;;5028400;28;20041;-75
2021/12/07 05:44:55;;;;;;;22.63;12.80;;;;;;;;;;5031189;28;20048;-75
2021/12/07 05:47:20;;;;;;;18.77;12.73;;;;;;;;;;5043941;28;20045;-76
2021/12/07 05:49:46;;;;;;;20.07;12.53;;;;;;;;;;5032122;28;20528;-74
2021/12/07 05:52:11;;;;;;;19.90;12.40;;;;;;;;;;5027612;28;20048;-75
2021/12/07 05:54:36;;;;;;;18.53;12.10;;;;;;;;;;5044562;28;20031;-75
2021/12/07 05:57:02;;;;;;;19.90;12.50;;;;;;;;;;5027789;28;20032;-75
2021/12/07 05:59:27;;;;;;;21.13;11.97;;;;;;;;;;5009581;28;20125;-75
2021/12/07 06:01:53;;;;;;;18.30;12.10;;;;;;;;;;5026621;28;20049;-77
2021/12/07 06:04:18;;;;;;;18.53;12.70;;;;;;;;;;5029817;28;20509;-76
2021/12/07 06:06:43;;;;;;;18.60;12.30;;;;;;;;;;5029936;28;20538;-76
2021/12/07 06:09:08;;;;;;;18.73;12.93;;;;;;;;;;5027164;28;20521;-77
2021/12/07 06:11:33;;;;;;;18.90;11.80;;;;;;;;;;5087765;27;20074;-75
2021/12/07 06:13:59;;;;;;;21.43;13.00;;;;;;;;;;5130894;27;20034;-76
2021/12/07 06:16:29;;;;;;;19.53;12.07;;;;;;;;;;5113439;27;20726;-76
2021/12/07 06:18:54;;;;;;;18.40;11.77;;;;;;;;;;5114262;27;20067;-74
2021/12/07 06:21:19;;;;;;;19.77;12.43;;;;;;;;;;5110804;27;20067;-76
2021/12/07 06:23:45;;;;;;;19.47;13.07;;;;;;;;;;5125417;27;20110;-75
2021/12/07 06:26:10;;;;;;;19.17;12.67;;;;;;;;;;5091504;27;20027;-76
2021/12/07 06:28:35;;;;;;;22.40;13.53;;;;;;;;;;5108547;27;20021;-75
2021/12/07 06:31:00;;;;;;;19.33;11.87;;;;;;;;;;5093921;27;20023;-76
2021/12/07 06:33:27;;;;;;;19.40;12.97;;;;;;;;;;5110168;28;20023;-76
2021/12/07 06:35:57;;;;;;;20.07;12.17;;;;;;;;;;5132522;27;20015;-76
2021/12/07 06:38:30;;;;;;;20.17;12.13;;;;;;;;;;5111772;28;20106;-76
2021/12/07 06:40:56;;;;;;;21.47;12.73;;;;;;;;;;5132562;27;20019;-75
2021/12/07 06:43:21;;;;;;;17.80;12.10;;;;;;;;;;5112957;28;20027;-76
2021/12/07 06:45:47;;;;;;;19.83;11.80;;;;;;;;;;5130195;28;20031;-76
2021/12/07 06:48:12;;;;;;;20.00;11.90;;;;;;;;;;5112703;28;20043;-76
2021/12/07 06:50:37;;;;;;;19.13;11.90;;;;;;;;;;5130321;28;20028;-75
2021/12/07 06:53:03;;;;;;;17.50;12.33;;;;;;;;;;5112212;28;20030;-76
2021/12/07 06:55:28;;;;;;;16.80;11.47;;;;;;;;;;5128488;28;20031;-75
2021/12/07 06:57:53;;;;;;;19.73;12.27;;;;;;;;;;5106271;28;20091;-76
2021/12/07 07:00:20;;;;;;;19.93;12.40;;;;;;;;;;5118748;27;20027;-75
2021/12/07 07:02:45;;;;;;;19.13;11.70;;;;;;;;;;5123265;27;20063;-75
2021/12/07 07:05:10;;;;;;;17.10;11.13;;;;;;;;;;5125418;27;20023;-76
2021/12/07 07:07:36;;;;;;;17.40;12.27;;;;;;;;;;5123503;27;20023;-75
2021/12/07 07:10:02;;;;;;;17.73;11.80;;;;;;;;;;5092687;27;20027;-75
2021/12/07 07:12:27;;;;;;;17.03;11.90;;;;;;;;;;5120225;27;20026;-76
2021/12/07 07:14:52;;;;;;;19.90;11.77;;;;;;;;;;5116566;27;20023;-76
2021/12/07 07:17:18;;;;;;;18.40;12.43;;;;;;;;;;5115924;27;20028;-76
2021/12/07 07:19:43;;;;;;;16.70;11.57;;;;;;;;;;5101330;27;20038;-75
2021/12/07 07:22:09;;;;;;;16.10;11.03;;;;;;;;;;5118060;27;20023;-75
2021/12/07 07:24:34;;;;;;;17.03;10.97;;;;;;;;;;5099055;27;20043;-76
2021/12/07 07:27:00;;;;;;;17.30;11.57;;;;;;;;;;5135217;27;20038;-76
2021/12/07 07:29:25;;;;;;;17.33;11.57;;;;;;;;;;5121291;27;20022;-76
2021/12/07 07:31:51;;;;;;;16.93;11.60;;;;;;;;;;5132755;27;20023;-75
2021/12/07 07:34:16;;;;;;;16.97;11.60;;;;;;;;;;5135758;27;20041;-75
2021/12/07 07:36:41;;;;;;;19.53;11.73;;;;;;;;;;5117842;27;20039;-75
2021/12/07 07:39:06;;;;;;;21.67;11.80;;;;;;;;;;5135368;27;20019;-75
2021/12/07 07:41:32;;;;;;;16.27;10.50;;;;;;;;;;5104365;27;20035;-75
2021/12/07 07:43:57;;;;;;;17.90;11.63;;;;;;;;;;5100022;27;20027;-75
2021/12/07 07:46:22;;;;;;;19.37;13.30;;;;;;;;;;5117138;27;20083;-75
2021/12/07 07:48:47;;;;;;;17.67;11.07;;;;;;;;;;5134894;27;20019;-75
2021/12/07 07:51:13;;;;;;;19.17;12.10;;;;;;;;;;5101338;28;20031;-75
2021/12/07 07:53:38;;;;;;;15.70;10.87;;;;;;;;;;5108149;27;20337;-75
2021/12/07 07:56:03;;;;;;;16.67;10.93;;;;;;;;;;5118243;27;20079;-75
2021/12/07 07:58:28;;;;;;;16.90;11.77;;;;;;;;;;5116332;27;20011;-74
2021/12/07 08:00:54;;;;;;;17.00;11.73;;;;;;;;;;5133121;27;20498;-75
2021/12/07 08:03:19;;;;;;;16.73;11.40;;;;;;;;;;5116364;27;20035;-75
2021/12/07 08:05:45;;;;;;;15.57;11.20;;;;;;;;;;5100011;27;20085;-72
2021/12/07 08:08:10;;;;;;;16.23;11.90;;;;;;;;;;5134717;27;20425;-75
2021/12/07 08:10:35;;;;;;;17.30;11.50;;;;;;;;;;5134959;27;20383;-74
2021/12/07 08:13:02;;;;;;;17.67;11.47;;;;;;;;;;5134446;27;20023;-76
2021/12/07 08:15:29;;;;;;;15.20;10.83;;;;;;;;;;5133031;27;20027;-75
2021/12/07 08:17:54;;;;;;;15.80;11.00;;;;;;;;;;5115307;27;20029;-75
2021/12/07 08:20:20;;;;;;;17.53;11.30;;;;;;;;;;5112229;27;20103;-75
2021/12/07 08:22:45;;;;;;;15.87;10.83;;;;;;;;;;5119429;27;20072;-72
2021/12/07 08:25:11;;;;;;;17.17;11.00;;;;;;;;;;5133058;27;20023;-74
2021/12/07 08:27:36;;;;;;;15.73;10.47;;;;;;;;;;5137010;27;20048;-74
2021/12/07 08:30:05;;;;;;;14.50;10.53;;;;;;;;;;5124635;27;20490;-74
2021/12/07 08:32:31;;;;;;;15.37;10.97;;;;;;;;;;5112770;27;20087;-74
2021/12/07 08:34:56;;;;;;;15.37;10.73;;;;;;;;;;5099190;27;20421;-74
2021/12/07 08:37:21;;;;;;;20.30;10.73;;;;;;;;;;5134186;27;20172;-75
2021/12/07 08:39:46;;;;;;;16.27;11.37;;;;;;;;;;5133832;27;20019;-75
2021/12/07 08:42:11;;;;;;;15.75;10.52;;;;;;;;;;5115701;27;20072;-74
2021/12/07 08:44:37;;;;;;;14.20;10.10;;;;;;;;;;5116112;27;20027;-73
2021/12/07 08:47:02;;;;;;;17.10;10.73;;;;;;;;;;5115963;27;20031;-76
2021/12/07 08:49:28;;;;;;;17.67;11.00;;;;;;;;;;5132048;27;20046;-74
2021/12/07 08:51:53;;;;;;;13.70;9.57;;;;;;;;;;5134545;27;20514;-70
2021/12/07 08:59:48;;;;;;;16.67;11.77;;;;;;;;;;5118123;27;20486;-73
2021/12/07 09:02:14;;;;;;;14.73;10.02;;;;;;;;;;5095294;28;20496;-74
2021/12/07 09:04:40;;;;;;;16.30;10.43;;;;;;;;;;5104858;27;20019;-74
2021/12/07 09:07:06;;;;;;;14.65;9.90;;;;;;;;;;5129369;27;20027;-75
2021/12/07 09:09:32;;;;;;;15.80;9.60;;;;;;;;;;5133152;27;20081;-75
2021/12/07 09:11:57;;;;;;;12.82;9.18;;;;;;;;;;5114756;27;20015;-74
2021/12/07 09:14:23;;;;;;;12.80;8.55;;;;;;;;;;5134336;27;20424;-74
2021/12/07 09:16:49;;;;;;;13.23;8.98;;;;;;;;;;5115096;27;20023;-75
2021/12/07 09:19:14;;;;;;;14.25;8.90;;;;;;;;;;5097770;27;20410;-73
2021/12/07 09:21:39;;;;;;;14.45;9.90;;;;;;;;;;5114888;27;20536;-75
2021/12/07 09:24:05;;;;;;;13.95;9.93;;;;;;;;;;5133893;27;20102;-74
2021/12/07 09:26:30;;;;;;;13.57;9.65;;;;;;;;;;5115335;27;20031;-75
2021/12/07 09:28:56;;;;;;;11.77;9.00;;;;;;;;;;5127685;27;20071;-76
2021/12/07 09:31:22;;;;;;;12.68;9.60;;;;;;;;;;5133036;27;20024;-73
2021/12/07 09:33:48;;;;;;;13.98;10.23;;;;;;;;;;5114564;27;20527;-76
2021/12/07 09:36:14;;;;;;;13.68;9.45;;;;;;;;;;5115282;27;20023;-72
2021/12/07 09:38:39;;;;;;;13.88;9.90;;;;;;;;;;5132041;27;20018;-74
2021/12/07 09:41:06;;;;;;;15.02;9.77;;;;;;;;;;5114739;27;20133;-74
2021/12/07 09:43:31;;;;;;;14.18;9.60;;;;;;;;;;5114499;27;20095;-76
2021/12/07 09:45:57;;;;;;;15.10;10.48;;;;;;;;;;5128657;27;20061;-72
2021/12/07 09:48:24;;;;;;;14.45;9.93;;;;;;;;;;5113319;28;20491;-74
2021/12/07 09:50:51;;;;;;;14.38;10.30;;;;;;;;;;5101963;27;20444;-74
2021/12/07 09:53:16;;;;;;;14.55;10.20;;;;;;;;;;5133603;27;20015;-71
2021/12/07 09:55:42;;;;;;;14.60;9.50;;;;;;;;;;5133352;27;20022;-72
2021/12/07 09:58:10;;;;;;;18.13;10.43;;;;;;;;;;5111179;27;20023;-72
2021/12/07 10:00:36;;;;;;;12.60;9.40;;;;;;;;;;5095927;27;20034;-74
2021/12/07 10:03:02;;;;;;;13.40;9.52;;;;;;;;;;5110672;28;20052;-74
2021/12/07 10:05:32;;;;;;;14.60;9.90;;;;;;;;;;5092177;27;20486;-75
2021/12/07 10:07:58;;;;;;;13.95;9.80;;;;;;;;;;5107852;28;20031;-73
2021/12/07 10:10:31;;;;;;;15.60;9.98;;;;;;;;;;5109938;27;20019;-75
2021/12/07 10:12:57;;;;;;;15.23;9.90;;;;;;;;;;5112092;27;20509;-75
2021/12/07 10:15:23;;;;;;;19.55;10.25;;;;;;;;;;5132319;27;20066;-75
2021/12/07 10:18:02;;;;;;;15.68;10.52;;;;;;;;;;5132106;27;20023;-75
2021/12/07 10:20:39;;;;;;;15.52;10.45;;;;;;;;;;5134175;27;20477;-75
2021/12/07 10:23:13;;;;;;;14.10;9.30;;;;;;;;;;5114453;27;20056;-75
2021/12/07 10:25:40;;;;;;;15.67;10.23;;;;;;;;;;5121722;27;20076;-72
2021/12/07 10:28:23;;;;;;;17.50;10.98;;;;;;;;;;5109414;27;20046;-73
2021/12/07 10:30:49;;;;;;;13.63;9.88;;;;;;;;;;5100708;28;20027;-73
2021/12/07 10:33:16;;;;;;;12.55;9.38;;;;;;;;;;5114579;27;20018;-73
2021/12/07 10:35:41;;;;;;;16.98;10.82;;;;;;;;;;5114336;27;20046;-74
2021/12/07 10:38:11;;;;;;;13.98;10.32;;;;;;;;;;5112765;27;20465;-73
2021/12/07 10:40:53;;;;;;;16.67;10.30;;;;;;;;;;5113771;28;20019;-73
2021/12/07 10:43:18;;;;;;;17.17;10.02;;;;;;;;;;5132194;27;20110;-73
2021/12/07 10:45:43;;;;;;;14.60;10.70;;;;;;;;;;5110777;28;20522;-73
2021/12/07 10:48:21;;;;;;;16.38;11.13;;;;;;;;;;5112272;28;20027;-74
2021/12/07 10:50:46;;;;;;;14.90;10.75;;;;;;;;;;5082743;28;20024;-73
2021/12/07 10:53:12;;;;;;;15.52;10.88;;;;;;;;;;5111099;28;20031;-72
2021/12/07 10:55:39;;;;;;;16.40;10.98;;;;;;;;;;5131879;28;20048;-74
2021/12/07 10:58:05;;;;;;;13.93;10.20;;;;;;;;;;5130426;27;20116;-72
2021/12/07 11:00:40;;;;;;;18.35;11.07;;;;;;;;;;5088996;28;20039;-73
2021/12/07 11:03:05;;;;;;;15.45;10.05;;;;;;;;;;5111738;28;20138;-74
2021/12/07 11:05:32;;;;;;;16.10;10.60;;;;;;;;;;5131317;28;20533;-72
2021/12/07 11:08:00;;;;;;;24.20;11.55;;;;;;;;;;5123806;28;20019;-71
2021/12/07 11:10:30;;;;;;;17.17;10.85;;;;;;;;;;5131405;28;20038;-73
2021/12/07 11:13:17;;;;;;;17.75;11.55;;;;;;;;;;5113645;28;20019;-73
2021/12/07 11:15:55;;;;;;;19.77;11.30;;;;;;;;;;5110896;28;20038;-74
2021/12/07 11:18:22;;;;;;;16.92;11.18;;;;;;;;;;5114978;28;20012;-73
2021/12/07 11:20:47;;;;;;;20.90;11.45;;;;;;;;;;5132580;27;20476;-73
2021/12/07 11:23:14;;;;;;;15.73;11.00;;;;;;;;;;5113863;28;20057;-73
2021/12/07 11:31:13;;;;;;;14.02;9.98;;;;;;;;;;5131091;28;20040;-73
2021/12/07 11:33:38;;;;;;;12.85;9.35;;;;;;;;;;5113172;28;20060;-73
2021/12/07 11:36:18;;;;;;;16.85;9.80;;;;;;;;;;5114032;28;20484;-73
2021/12/07 11:38:43;;;;;;;13.38;8.73;;;;;;;;;;5132051;28;20493;-74
2021/12/07 11:41:23;;;;;;;12.30;8.68;;;;;;;;;;5132103;28;20019;-73
2021/12/07 11:43:58;;;;;;;10.80;7.47;;;;;;;;;;5131239;28;20494;-73
2021/12/07 11:46:24;;;;;;;12.85;8.52;;;;;;;;;;5129698;28;20015;-74
2021/12/07 11:49:02;;;;;;;12.30;8.70;;;;;;;;;;5112880;27;20027;-73
2021/12/07 11:51:27;;;;;;;11.23;8.05;;;;;;;;;;5117297;27;20118;-72
2021/12/07 11:53:52;;;;;;;16.02;8.70;;;;;;;;;;5100500;27;20106;-73
2021/12/07 11:56:18;;;;;;;12.18;8.27;;;;;;;;;;5115919;27;20446;-72
2021/12/07 11:58:43;;;;;;;11.63;8.20;;;;;;;;;;5095863;27;20025;-73
2021/12/07 12:01:08;;;;;;;11.98;7.75;;;;;;;;;;5109768;28;20480;-72
2021/12/07 12:03:33;;;;;;;12.00;8.30;;;;;;;;;;5122620;27;20526;-73
2021/12/07 12:05:59;;;;;;;13.45;8.35;;;;;;;;;;5116873;27;20495;-72
2021/12/07 12:08:25;;;;;;;12.63;8.20;;;;;;;;;;5116449;27;20027;-71
2021/12/07 12:11:11;;;;;;;10.50;6.95;;;;;;;;;;5116883;27;20475;-72
2021/12/07 12:13:40;;;;;;;;;;;;;;;;;;5143850;27;20052;-72
2021/12/07 12:16:28;;;;;;;6.47;5.03;;;;;;;;;;5119230;27;20189;-72
2021/12/07 12:18:53;;;;;;;6.50;4.82;;;;;;;;;;5128327;27;20038;-73
2021/12/07 12:21:31;;;;;;;7.25;4.57;;;;;;;;;;5116273;27;20057;-73
2021/12/07 12:24:17;;;;;;;4.35;3.85;;;;;;;;;;5135281;27;20026;-73
2021/12/07 12:26:45;;;;;;;5.03;3.75;;;;;;;;;;5116056;27;20418;-73
2021/12/07 12:29:14;;;;;;;4.15;3.75;;;;;;;;;;5110434;27;20022;-73
2021/12/07 12:31:54;;;;;;;3.78;3.25;;;;;;;;;;5132569;27;20027;-73
2021/12/07 12:34:24;;;;;;;4.57;3.20;;;;;;;;;;5115010;27;20015;-73
2021/12/07 12:36:55;;;;;;;4.10;3.28;;;;;;;;;;5116204;27;20447;-72
2021/12/07 12:39:38;;;;;;;4.47;3.70;;;;;;;;;;5134374;27;20053;-72
2021/12/07 12:42:03;;;;;;;5.03;4.45;;;;;;;;;;5133879;27;20041;-72
2021/12/07 12:44:33;;;;;;;4.45;3.70;;;;;;;;;;5116046;27;20027;-72
2021/12/07 12:46:58;;;;;;;4.80;3.70;;;;;;;;;;5115682;27;20052;-71
2021/12/07 12:49:35;;;;;;;4.30;3.58;;;;;;;;;;5115906;27;20031;-73
2021/12/07 12:52:00;;;;;;;4.35;3.83;;;;;;;;;;5131414;27;20023;-74
2021/12/07 12:54:25;;;;;;;4.43;3.92;;;;;;;;;;5137947;27;20083;-73
2021/12/07 12:56:50;;;;;;;5.10;3.33;;;;;;;;;;5117542;27;20029;-74
2021/12/07 12:59:18;;;;;;;5.47;3.22;;;;;;;;;;5089552;28;20027;-76
2021/12/07 13:01:45;;;;;;;4.88;4.38;;;;;;;;;;5132235;27;20050;-76
2021/12/07 13:04:23;;;;;;;4.15;3.70;;;;;;;;;;5133747;27;20011;-75
2021/12/07 13:06:52;;;;;;;4.32;3.67;;;;;;;;;;5133871;27;20031;-76
2021/12/07 13:09:17;;;;;;;5.03;3.72;;;;;;;;;;5115735;27;20029;-75
2021/12/07 13:11:45;;;;;;;4.95;4.10;;;;;;;;;;5134202;27;20019;-76
2021/12/07 13:14:12;;;;;;;3.70;3.38;;;;;;;;;;5133176;27;20023;-76
2021/12/07 13:16:39;;;;;;;4.22;3.53;;;;;;;;;;5115325;27;20019;-75
2021/12/07 13:19:05;;;;;;;4.00;3.55;;;;;;;;;;5134294;27;20068;-76
2021/12/07 13:21:35;;;;;;;4.25;3.85;;;;;;;;;;5133384;27;20432;-76
2021/12/07 13:24:02;;;;;;;3.85;3.25;;;;;;;;;;5115120;27;20072;-76
2021/12/07 13:26:32;;;;;;;5.32;4.20;;;;;;;;;;5132834;27;20033;-75
2021/12/07 13:29:05;;;;;;;5.13;3.72;;;;;;;;;;5127220;27;20023;-72
2021/12/07 13:31:38;;;;;;;4.72;3.38;;;;;;;;;;5132367;27;20088;-75
2021/12/07 13:34:04;;;;;;;5.20;3.75;;;;;;;;;;5132560;27;20019;-75
2021/12/07 13:36:46;;;;;;;4.90;4.05;;;;;;;;;;5133118;27;20060;-75
2021/12/07 13:39:19;;;;;;;5.20;3.90;;;;;;;;;;5132959;27;20054;-75
2021/12/07 13:42:02;;;;;;;4.30;3.75;;;;;;;;;;5132470;27;20113;-76
2021/12/07 13:44:28;;;;;;;5.28;3.92;;;;;;;;;;5132372;27;20479;-74
2021/12/07 13:46:55;;;;;;;6.70;3.65;;;;;;;;;;5133088;27;20019;-76
2021/12/07 13:49:21;;;;;;;4.72;3.88;;;;;;;;;;5133633;27;20038;-76
2021/12/07 13:51:46;;;;;;;5.70;4.28;;;;;;;;;;5133045;27;20474;-76
2021/12/07 13:54:15;;;;;;;4.18;3.30;;;;;;;;;;5098202;27;20403;-76
2021/12/07 13:56:41;;;;;;;4.72;3.50;;;;;;;;;;5132536;27;20526;-75
2021/12/07 13:59:07;;;;;;;6.93;3.90;;;;;;;;;;5109466;27;20103;-76
2021/12/07 14:01:34;;;;;;;4.22;3.05;;;;;;;;;;5113820;27;20038;-76
2021/12/07 14:04:01;;;;;;;4.95;3.90;;;;;;;;;;5103063;28;20023;-76
2021/12/07 14:06:26;;;;;;;4.22;3.75;;;;;;;;;;5125449;27;20031;-76
2021/12/07 14:08:52;;;;;;;3.80;3.40;;;;;;;;;;5132828;27;20035;-76
2021/12/07 14:11:17;;;;;;;4.55;3.58;;;;;;;;;;5114036;27;20033;-74
2021/12/07 14:13:45;;;;;;;5.65;4.50;;;;;;;;;;5096950;27;20403;-75
2021/12/07 14:16:11;;;;;;;5.35;4.05;;;;;;;;;;5132119;27;20023;-75
2021/12/07 14:18:38;;;;;;;4.75;4.25;;;;;;;;;;5132895;27;20023;-74
2021/12/07 14:21:04;;;;;;;5.28;3.90;;;;;;;;;;5132990;27;20019;-75
2021/12/07 14:23:34;;;;;;;5.47;4.10;;;;;;;;;;5132521;27;20027;-75
2021/12/07 14:26:08;;;;;;;5.75;4.25;;;;;;;;;;5114657;27;20110;-75
2021/12/07 14:28:42;;;;;;;4.57;4.17;;;;;;;;;;5126077;27;20027;-75
2021/12/07 14:31:10;;;;;;;8.38;5.50;;;;;;;;;;5129163;27;20031;-76
2021/12/07 14:33:47;;;;;;;5.97;4.40;;;;;;;;;;5147371;27;20058;-75
2021/12/07 14:36:13;;;;;;;4.50;3.70;;;;;;;;;;5153793;27;20497;-77
2021/12/07 14:38:38;;;;;;;5.47;4.10;;;;;;;;;;5143495;27;20042;-75
2021/12/07 14:41:08;;;;;;;5.83;4.50;;;;;;;;;;5132481;27;20456;-75
2021/12/07 14:43:34;;;;;;;4.17;3.77;;;;;;;;;;5113352;27;20023;-75
2021/12/07 14:46:01;;;;;;;4.63;4.03;;;;;;;;;;5093739;28;20054;-74
2021/12/07 14:48:26;;;;;;;5.32;4.13;;;;;;;;;;5106307;28;20027;-75
2021/12/07 14:50:51;;;;;;;4.90;4.03;;;;;;;;;;5113476;28;20034;-75
2021/12/07 14:53:30;;;;;;;5.60;4.18;;;;;;;;;;5113113;28;20030;-75
2021/12/07 14:55:55;;;;;;;5.47;3.80;;;;;;;;;;5112477;28;20020;-76
2021/12/07 14:58:27;;;;;;;4.67;3.90;;;;;;;;;;5108106;28;20387;-76
2021/12/07 15:00:52;;;;;;;4.93;3.88;;;;;;;;;;5123205;28;20078;-76
2021/12/07 15:03:18;;;;;;;6.40;4.13;;;;;;;;;;5122784;28;20137;-73
2021/12/07 15:05:43;;;;;;;5.55;3.60;;;;;;;;;;5130908;28;20066;-76
2021/12/07 15:08:08;;;;;;;8.33;4.47;;;;;;;;;;5110078;28;20034;-76
2021/12/07 15:10:34;;;;;;;4.97;4.33;;;;;;;;;;5132466;28;20131;-76
2021/12/07 15:12:59;;;;;;;4.53;3.90;;;;;;;;;;5131663;28;20023;-75
2021/12/07 15:15:24;;;;;;;4.53;4.10;;;;;;;;;;5113355;28;20028;-76
2021/12/07 15:17:49;;;;;;;5.23;3.90;;;;;;;;;;5113451;28;20110;-76
2021/12/07 15:20:15;;;;;;;4.57;4.17;;;;;;;;;;5096365;28;20039;-76
2021/12/07 15:22:41;;;;;;;5.20;4.67;;;;;;;;;;5095590;27;20027;-76
2021/12/07 15:25:09;;;;;;;5.53;4.40;;;;;;;;;;5117846;27;20115;-76
2021/12/07 15:27:34;;;;;;;5.13;3.73;;;;;;;;;;5116836;27;20031;-76
2021/12/07 15:30:00;;;;;;;4.17;3.77;;;;;;;;;;5128531;27;20483;-77
2021/12/07 15:32:25;;;;;;;5.70;4.23;;;;;;;;;;5134801;27;20114;-76
2021/12/07 15:34:51;;;;;;;4.40;4.00;;;;;;;;;;5135461;27;20027;-76
2021/12/07 15:37:21;;;;;;;5.63;4.27;;;;;;;;;;5117610;27;20029;-76
2021/12/07 15:39:50;;;;;;;3.80;3.40;;;;;;;;;;5135379;27;20029;-76
2021/12/07 15:42:20;;;;;;;4.70;4.23;;;;;;;;;;5135559;27;20046;-74
2021/12/07 15:44:52;;;;;;;4.30;3.70;;;;;;;;;;5135604;27;20031;-77
2021/12/07 15:47:18;;;;;;;3.80;3.40;;;;;;;;;;5115581;27;20020;-77
2021/12/07 15:49:51;;;;;;;4.60;3.63;;;;;;;;;;5099396;27;20031;-77
2021/12/07 15:52:18;;;;;;;4.43;3.90;;;;;;;;;;5135229;27;20126;-76
2021/12/07 15:55:00;;;;;;;4.50;4.00;;;;;;;;;;5135830;27;20019;-76
2021/12/07 15:57:25;;;;;;;4.30;3.90;;;;;;;;;;5134698;27;20057;-77
2021/12/07 16:00:00;;;;;;;4.57;4.13;;;;;;;;;;5109020;27;20047;-76
2021/12/07 16:02:26;;;;;;;4.75;3.85;;;;;;;;;;5132573;27;20078;-77
2021/12/07 16:04:52;;;;;;;6.53;4.93;;;;;;;;;;5116864;27;20054;-77
2021/12/07 16:07:18;;;;;;;5.57;4.33;;;;;;;;;;5132147;27;20755;-76
2021/12/07 16:09:44;;;;;;;6.63;5.10;;;;;;;;;;5133830;27;20098;-76
2021/12/07 16:12:16;;;;;;;6.10;5.30;;;;;;;;;;5133831;27;20114;-75
2021/12/07 16:14:41;;;;;;;5.67;4.63;;;;;;;;;;5131546;27;20019;-77
2021/12/07 16:17:20;;;;;;;5.00;3.90;;;;;;;;;;5134592;27;20375;-77